sensor_id;sensor_type;location;lat;lon;timestamp;P1;durP1;ratioP1;P2;durP2;ratioP2
15151;SDS011;7676;50.900;6.234;2023-03-15T00:11:56;13.00;;;6.70;;
15151;SDS011;7676;50.900;6.234;2023-03-15T00:27:40;12.03;;;6.33;;
15151;SDS011;7676;50.900;6.234;2023-03-15T00:42:42;10.60;;;5.77;;
15151;SDS011;7676;50.900;6.234;2023-03-15T00:57:50;9.43;;;5.50;;
15151;SDS011;7676;50.900;6.234;2023-03-15T01:12:53;8.77;;;5.37;;
15151;SDS011;7676;50.900;6.234;2023-03-15T01:27:55;7.23;;;4.90;;
15151;SDS011;7676;50.900;6.234;2023-03-15T01:58:03;5.27;;;3.17;;
15151;SDS011;7676;50.900;6.234;2023-03-15T02:13:14;4.50;;;2.83;;
15151;SDS011;7676;50.900;6.234;2023-03-15T02:28:19;3.40;;;2.27;;
15151;SDS011;7676;50.900;6.234;2023-03-15T02:43:23;1.53;;;1.43;;
15151;SDS011;7676;50.900;6.234;2023-03-15T02:58:28;1.60;;;1.50;;
15151;SDS011;7676;50.900;6.234;2023-03-15T03:13:31;2.20;;;2.00;;
15151;SDS011;7676;50.900;6.234;2023-03-15T03:28:38;2.50;;;2.30;;
15151;SDS011;7676;50.900;6.234;2023-03-15T03:43:40;3.43;;;3.13;;
15151;SDS011;7676;50.900;6.234;2023-03-15T03:58:43;3.87;;;3.47;;
15151;SDS011;7676;50.900;6.234;2023-03-15T04:13:56;4.23;;;3.80;;
15151;SDS011;7676;50.900;6.234;2023-03-15T04:29:00;3.10;;;2.90;;
15151;SDS011;7676;50.900;6.234;2023-03-15T04:44:19;3.17;;;2.87;;
15151;SDS011;7676;50.900;6.234;2023-03-15T04:59:24;3.07;;;2.77;;
15151;SDS011;7676;50.900;6.234;2023-03-15T05:14:46;3.80;;;3.50;;
15151;SDS011;7676;50.900;6.234;2023-03-15T05:30:08;5.27;;;4.50;;
15151;SDS011;7676;50.900;6.234;2023-03-15T05:45:37;4.87;;;4.47;;
15151;SDS011;7676;50.900;6.234;2023-03-15T06:00:52;5.07;;;4.10;;
15151;SDS011;7676;50.900;6.234;2023-03-15T06:16:12;4.57;;;4.20;;
15151;SDS011;7676;50.900;6.234;2023-03-15T06:31:18;4.47;;;4.07;;
15151;SDS011;7676;50.900;6.234;2023-03-15T06:46:27;5.37;;;4.93;;
15151;SDS011;7676;50.900;6.234;2023-03-15T07:01:30;5.63;;;5.13;;
15151;SDS011;7676;50.900;6.234;2023-03-15T07:16:32;6.57;;;5.60;;
15151;SDS011;7676;50.900;6.234;2023-03-15T07:31:35;6.70;;;5.90;;
15151;SDS011;7676;50.900;6.234;2023-03-15T07:46:41;7.50;;;5.97;;
15151;SDS011;7676;50.900;6.234;2023-03-15T08:01:43;7.43;;;6.33;;
15151;SDS011;7676;50.900;6.234;2023-03-15T08:16:46;7.27;;;6.57;;
15151;SDS011;7676;50.900;6.234;2023-03-15T08:31:48;6.97;;;6.17;;
15151;SDS011;7676;50.900;6.234;2023-03-15T08:46:51;6.00;;;4.13;;
15151;SDS011;7676;50.900;6.234;2023-03-15T09:01:54;5.67;;;4.10;;
15151;SDS011;7676;50.900;6.234;2023-03-15T09:16:56;5.50;;;3.70;;
15151;SDS011;7676;50.900;6.234;2023-03-15T09:31:59;5.13;;;4.30;;
15151;SDS011;7676;50.900;6.234;2023-03-15T10:02:32;6.23;;;2.93;;
15151;SDS011;7676;50.900;6.234;2023-03-15T10:32:37;6.53;;;4.57;;
15151;SDS011;7676;50.900;6.234;2023-03-15T10:47:44;3.60;;;2.87;;
15151;SDS011;7676;50.900;6.234;2023-03-15T11:03:14;6.37;;;3.47;;
15151;SDS011;7676;50.900;6.234;2023-03-15T11:18:41;4.70;;;2.80;;
15151;SDS011;7676;50.900;6.234;2023-03-15T12:04:55;4.43;;;2.97;;
15151;SDS011;7676;50.900;6.234;2023-03-15T12:20:06;4.70;;;1.80;;
15151;SDS011;7676;50.900;6.234;2023-03-15T12:35:20;3.83;;;2.33;;
15151;SDS011;7676;50.900;6.234;2023-03-15T13:36:40;3.10;;;1.80;;
15151;SDS011;7676;50.900;6.234;2023-03-15T13:51:47;2.27;;;1.23;;
15151;SDS011;7676;50.900;6.234;2023-03-15T14:07:00;2.13;;;1.40;;
15151;SDS011;7676;50.900;6.234;2023-03-15T14:22:19;3.43;;;2.07;;
15151;SDS011;7676;50.900;6.234;2023-03-15T14:37:30;3.30;;;1.47;;
15151;SDS011;7676;50.900;6.234;2023-03-15T14:52:43;5.37;;;2.20;;
15151;SDS011;7676;50.900;6.234;2023-03-15T15:07:47;2.00;;;1.23;;
15151;SDS011;7676;50.900;6.234;2023-03-15T15:22:50;2.33;;;1.20;;
15151;SDS011;7676;50.900;6.234;2023-03-15T15:37:53;2.23;;;1.97;;
15151;SDS011;7676;50.900;6.234;2023-03-15T15:52:56;2.43;;;1.23;;
15151;SDS011;7676;50.900;6.234;2023-03-15T16:08:00;3.83;;;1.37;;
15151;SDS011;7676;50.900;6.234;2023-03-15T16:23:09;3.13;;;1.20;;
15151;SDS011;7676;50.900;6.234;2023-03-15T16:38:20;2.80;;;1.20;;
15151;SDS011;7676;50.900;6.234;2023-03-15T16:53:30;2.77;;;1.27;;
15151;SDS011;7676;50.900;6.234;2023-03-15T17:08:32;1.43;;;1.30;;
15151;SDS011;7676;50.900;6.234;2023-03-15T17:23:35;10.97;;;9.73;;
15151;SDS011;7676;50.900;6.234;2023-03-15T17:38:37;12.17;;;7.40;;
15151;SDS011;7676;50.900;6.234;2023-03-15T17:53:44;4.37;;;2.40;;
15151;SDS011;7676;50.900;6.234;2023-03-15T18:08:47;2.80;;;1.90;;
15151;SDS011;7676;50.900;6.234;2023-03-15T18:23:50;3.43;;;2.30;;
15151;SDS011;7676;50.900;6.234;2023-03-15T18:38:53;3.67;;;2.70;;
15151;SDS011;7676;50.900;6.234;2023-03-15T18:53:56;3.80;;;2.67;;
15151;SDS011;7676;50.900;6.234;2023-03-15T19:08:59;4.33;;;3.93;;
15151;SDS011;7676;50.900;6.234;2023-03-15T19:24:02;5.67;;;3.93;;
15151;SDS011;7676;50.900;6.234;2023-03-15T19:39:04;4.87;;;3.40;;
15151;SDS011;7676;50.900;6.234;2023-03-15T19:54:07;3.93;;;2.63;;
15151;SDS011;7676;50.900;6.234;2023-03-15T20:09:10;3.80;;;2.30;;
15151;SDS011;7676;50.900;6.234;2023-03-15T20:24:14;2.70;;;2.10;;
15151;SDS011;7676;50.900;6.234;2023-03-15T20:39:17;3.07;;;2.00;;
15151;SDS011;7676;50.900;6.234;2023-03-15T20:54:20;2.97;;;2.00;;
15151;SDS011;7676;50.900;6.234;2023-03-15T21:09:23;3.60;;;2.13;;
15151;SDS011;7676;50.900;6.234;2023-03-15T21:24:27;3.00;;;2.63;;
15151;SDS011;7676;50.900;6.234;2023-03-15T21:39:32;2.87;;;2.00;;
15151;SDS011;7676;50.900;6.234;2023-03-15T21:54:34;2.53;;;1.97;;
15151;SDS011;7676;50.900;6.234;2023-03-15T22:09:36;2.40;;;1.80;;
15151;SDS011;7676;50.900;6.234;2023-03-15T22:24:39;2.33;;;2.00;;
15151;SDS011;7676;50.900;6.234;2023-03-15T22:39:42;3.20;;;2.53;;
15151;SDS011;7676;50.900;6.234;2023-03-15T22:54:45;3.33;;;2.30;;
15151;SDS011;7676;50.900;6.234;2023-03-15T23:09:48;2.37;;;2.17;;
15151;SDS011;7676;50.900;6.234;2023-03-15T23:24:52;2.50;;;2.30;;
15151;SDS011;7676;50.900;6.234;2023-03-15T23:39:58;3.03;;;2.40;;
15151;SDS011;7676;50.900;6.234;2023-03-15T23:55:01;2.87;;;2.20;;
